Newhaven, United Kingdom

10:29 AM BST on May 30, 2017 (GMT +0100)
Leith | | Change Station

Elev 90 ft 55.98 °N, 3.18 °W | Updated 55 minutes ago

Mostly Cloudy
Mostly Cloudy
59.8 °F
Feels Like 59.8 °F
N
0.0
Wind Variable Wind from North
Gusts 0.0 mph

Today
High -- | Low -- °F
--% Chance of Precip.
Yesterday
High -- | Low -- °F
Precip. -- in
Pressure 29.80 in
Visibility 6.2 miles
Clouds Mostly Cloudy 1600 ft
Mostly Cloudy 2000 ft
Dew Point 56 °F
Humidity 89%
Rainfall 0.00 in
Snow Depth Not available.
4:36 AM 9:44 PM
Waxing Crescent, 28% visible
METAR EGPH 300920Z 24013KT 9999 9000W VCSH BKN016 BKN020 14/12 Q1009
Pressure 29.80 in
Visibility 6.2 miles
Clouds Mostly Cloudy 1600 ft
Mostly Cloudy 2000 ft
Dew Point 56 °F
Humidity 89%
Rainfall 0.00 in
Snow Depth Not available.
4:36 AM 9:44 PM
Waxing Crescent, 28% visible
METAR EGPH 300920Z 24013KT 9999 9000W VCSH BKN016 BKN020 14/12 Q1009

Get Severe Weather Alerts

Thanks for signing up!

Be on the lookout for a verification email in your inbox.

You'll start receiving the daily forecast at 6 AM.

×

10-Day Weather Forecast

×

Almanac

Astronomy

May. 30, 2017 Rise Set
Actual Time
Civil Twilight
Nautical Twilight
Astronomical Twilight
Moon
Length of Visible Light
Length of Day
Tomorrow will be .
, % of the Moon is Illuminated

Today's Extremes

Country Highs Country Lows

Community

WunderPhotos

Category 6

Welcome to Category 6. This is the collective home for Weather Underground's featured writeups by Dr. Jeff Masters (right), Bob Henson (left), Chris Burt, and other regular contributors.

Nearby

Air Quality

  Air Quality AQ Index Pollutant
Not available.

Snow Depth

Station Depth Elevation

Earthquake Activity

City Distance Mag. Time & Date
Minimum magnitude displayed is 2.5.

Coastal Water Temperatures

Place Temperature

Stations

Nearby Weather Stations

Station Location Temp. Windchill Dew Point Humidity Wind Precip. Elev Updated Type